Time;durP1;ratioP1;P1;durP2;ratioP2;P2;SDS_P1;SDS_P2;PMS_P1;PMS_P2;Temp;Humidity;BMP_temperature;BMP_pressure;BME280_temperature;BME280_humidity;BME280_pressure;Samples;Min_cycle;Max_cycle;Signal;HPM_P1;HPM_P2
2021/08/25 00:00:54;;;;;;;3.80;3.53;;;22.50;72.30;;;;;;4176017;28;20045;-60
2021/08/25 00:03:16;;;;;;;3.58;3.28;;;22.50;71.20;;;;;;4176178;28;20427;-60
2021/08/25 00:05:38;;;;;;;4.20;3.90;;;22.50;71.40;;;;;;4189112;28;20147;-60
2021/08/25 00:08:00;;;;;;;3.17;2.95;;;22.50;71.40;;;;;;4192729;28;20048;-59
2021/08/25 00:10:23;;;;;;;3.55;3.35;;;22.50;71.40;;;;;;4192596;28;20380;-60
2021/08/25 00:12:45;;;;;;;3.40;3.20;;;22.50;71.40;;;;;;4192153;28;20548;-60
2021/08/25 00:15:08;;;;;;;3.65;3.35;;;22.50;71.40;;;;;;4185985;28;20399;-59
2021/08/25 00:17:32;;;;;;;2.97;2.88;;;22.50;71.20;;;;;;4175717;28;20055;-60
2021/08/25 00:19:54;;;;;;;3.30;3.10;;;22.50;71.10;;;;;;4183006;28;20513;-59
2021/08/25 00:22:16;;;;;;;3.42;3.22;;;22.50;71.20;;;;;;4192548;28;20052;-60
2021/08/25 00:24:38;;;;;;;3.22;3.03;;;22.50;71.10;;;;;;4192278;28;20135;-59
2021/08/25 00:27:00;;;;;;;3.40;3.10;;;22.50;71.10;;;;;;4192236;28;20052;-60
2021/08/25 00:29:22;;;;;;;3.67;3.47;;;22.50;71.10;;;;;;4192102;28;20051;-60
2021/08/25 00:31:45;;;;;;;3.25;3.05;;;22.40;71.00;;;;;;4191903;28;20071;-60
2021/08/25 00:34:08;;;;;;;3.35;3.15;;;22.40;71.00;;;;;;4188140;28;20057;-59
2021/08/25 00:36:31;;;;;;;3.58;3.28;;;22.40;71.00;;;;;;4175021;28;20056;-61
2021/08/25 00:38:53;;;;;;;3.47;3.05;;;22.40;71.10;;;;;;4175681;28;20056;-60
2021/08/25 00:41:15;;;;;;;2.85;2.72;;;22.40;71.10;;;;;;4175493;28;20139;-60
2021/08/25 00:43:37;;;;;;;2.85;2.70;;;22.40;71.00;;;;;;4175616;28;20041;-60
2021/08/25 00:45:59;;;;;;;2.80;2.70;;;22.40;71.00;;;;;;4179918;28;20164;-60
2021/08/25 00:48:21;;;;;;;2.90;2.70;;;22.40;70.90;;;;;;4208717;28;20120;-60
2021/08/25 00:50:46;;;;;;;2.05;1.95;;;22.40;70.90;;;;;;4191568;28;20040;-60
2021/08/25 00:53:09;;;;;;;1.45;1.45;;;22.40;70.40;;;;;;4191828;28;20056;-60
2021/08/25 00:55:33;;;;;;;1.70;1.65;;;22.40;70.60;;;;;;4191488;28;20122;-59
2021/08/25 00:57:55;;;;;;;2.00;1.90;;;22.40;70.50;;;;;;4191720;28;20410;-60
2021/08/25 01:00:18;;;;;;;5.40;2.08;;;22.40;70.40;;;;;;4191717;28;20071;-59
2021/08/25 01:02:48;;;;;;;6.18;2.60;;;22.30;70.20;;;;;;4191603;28;20067;-59
2021/08/25 01:05:11;;;;;;;42.47;4.82;;;22.30;70.00;;;;;;4180229;28;20064;-60
2021/08/25 01:07:34;;;;;;;32.72;4.40;;;22.30;70.90;;;;;;4175051;28;20139;-60
2021/08/25 01:09:56;;;;;;;17.27;3.38;;;22.30;70.70;;;;;;4174854;28;20059;-60
2021/08/25 01:12:20;;;;;;;20.33;3.65;;;22.30;70.80;;;;;;4174826;28;20134;-60
2021/08/25 01:14:42;;;;;;;19.90;3.20;;;22.30;70.80;;;;;;4175052;28;20110;-60
2021/08/25 01:17:05;;;;;;;16.50;3.08;;;22.30;70.90;;;;;;4197234;28;20841;-60
2021/08/25 01:19:30;;;;;;;15.95;2.72;;;22.30;70.80;;;;;;4197761;28;20051;-60
2021/08/25 01:21:52;;;;;;;8.27;1.90;;;22.30;70.90;;;;;;4207979;28;20502;-60
2021/08/25 01:24:18;;;;;;;13.18;2.40;;;22.30;71.00;;;;;;4200599;28;20161;-60
2021/08/25 01:26:40;;;;;;;5.18;2.00;;;22.30;70.80;;;;;;4192390;28;20869;-60
2021/08/25 01:29:03;;;;;;;6.32;1.95;;;22.20;71.10;;;;;;4190708;28;20056;-60
2021/08/25 01:31:28;;;;;;;18.63;2.30;;;22.20;71.00;;;;;;4191433;28;20574;-59
2021/08/25 01:33:50;;;;;;;22.08;2.90;;;22.20;70.90;;;;;;4197027;28;20052;-59
2021/08/25 01:36:19;;;;;;;20.20;3.05;;;22.20;70.90;;;;;;4190839;28;20133;-60
2021/08/25 01:38:49;;;;;;;20.77;2.35;;;22.20;70.70;;;;;;4190986;28;20513;-60
2021/08/25 01:41:11;;;;;;;22.23;2.80;;;22.20;70.60;;;;;;4191016;28;20055;-59
2021/08/25 01:43:33;;;;;;;29.67;3.10;;;22.10;71.00;;;;;;4190635;28;20052;-60
2021/08/25 01:45:55;;;;;;;17.80;2.50;;;22.10;71.10;;;;;;4191056;28;20131;-60
2021/08/25 01:48:18;;;;;;;15.00;2.13;;;22.10;71.10;;;;;;4191250;28;20049;-60
2021/08/25 01:50:40;;;;;;;12.05;1.90;;;22.10;71.20;;;;;;4174517;28;20503;-60
2021/08/25 01:53:02;;;;;;;9.82;1.77;;;22.10;71.10;;;;;;4174769;28;20507;-59
2021/08/25 01:55:24;;;;;;;7.60;1.80;;;22.10;71.90;;;;;;4174737;28;20052;-60
2021/08/25 01:57:47;;;;;;;2.28;1.10;;;22.10;71.20;;;;;;4190953;28;20070;-59
2021/08/25 02:00:10;;;;;;;1.27;1.00;;;22.10;71.10;;;;;;4191271;28;20082;-60
2021/08/25 02:02:32;;;;;;;0.90;0.90;;;22.10;71.10;;;;;;4191018;28;20483;-60
2021/08/25 02:04:56;;;;;;;2.50;1.20;;;22.10;71.30;;;;;;4179162;28;20129;-59
2021/08/25 02:07:18;;;;;;;1.33;1.33;;;22.10;71.20;;;;;;4174336;28;20049;-60
2021/08/25 02:09:40;;;;;;;1.20;1.20;;;22.10;71.30;;;;;;4173176;28;20499;-60
2021/08/25 02:12:02;;;;;;;1.10;1.10;;;22.00;71.30;;;;;;4174691;28;20412;-60
2021/08/25 02:14:24;;;;;;;1.25;1.25;;;22.00;71.40;;;;;;4177797;28;20052;-60
2021/08/25 02:16:47;;;;;;;1.00;1.00;;;22.00;71.20;;;;;;4191030;28;20041;-60
2021/08/25 02:19:09;;;;;;;0.70;0.70;;;22.00;71.20;;;;;;4190315;28;20478;-60
2021/08/25 02:21:32;;;;;;;0.85;0.85;;;22.00;71.10;;;;;;4190955;28;20060;-60
2021/08/25 02:23:54;;;;;;;1.13;1.13;;;22.00;71.20;;;;;;4191020;28;20056;-60
2021/08/25 02:26:17;;;;;;;0.93;0.93;;;22.00;71.30;;;;;;4190725;28;20059;-60
2021/08/25 02:28:39;;;;;;;1.20;1.20;;;22.00;71.20;;;;;;4186737;28;20117;-60
2021/08/25 02:31:02;;;;;;;1.13;1.13;;;22.00;71.10;;;;;;4174351;28;20084;-60
2021/08/25 02:33:24;;;;;;;1.30;1.20;;;22.00;71.10;;;;;;4198796;28;20075;-60
2021/08/25 02:36:12;;;;;;;2.65;1.10;;;22.00;70.90;;;;;;4201832;28;20813;-60
2021/08/25 02:38:38;;;;;;;1.38;1.38;;;22.00;71.30;;;;;;4207552;28;20485;-59
2021/08/25 02:41:00;;;;;;;1.35;1.25;;;21.90;71.10;;;;;;4207376;28;20512;-60
2021/08/25 02:43:22;;;;;;;1.33;1.33;;;21.90;71.20;;;;;;4207331;28;20050;-59
2021/08/25 02:45:45;;;;;;;1.23;1.23;;;21.90;71.00;;;;;;4207577;28;20048;-60
2021/08/25 02:48:08;;;;;;;5.22;1.90;;;21.90;71.10;;;;;;4204383;28;20056;-60
2021/08/25 02:50:30;;;;;;;1.27;1.27;;;21.90;72.00;;;;;;4190610;28;20051;-60
2021/08/25 02:52:52;;;;;;;1.10;1.10;;;21.90;71.10;;;;;;4200794;28;20106;-58
2021/08/25 02:55:16;;;;;;;1.20;1.20;;;21.90;71.20;;;;;;4193002;28;20060;-61
2021/08/25 02:57:37;;;;;;;1.40;1.40;;;21.90;71.10;;;;;;4174002;28;20059;-59
2021/08/25 03:00:00;;;;;;;1.08;1.08;;;21.90;71.30;;;;;;4174047;28;20049;-58
2021/08/25 03:02:22;;;;;;;1.42;1.42;;;21.90;71.40;;;;;;4173878;28;20055;-58
2021/08/25 03:04:44;;;;;;;1.30;1.30;;;21.90;71.40;;;;;;4176168;28;20041;-59
2021/08/25 03:07:06;;;;;;;1.65;1.48;;;21.90;71.40;;;;;;4176976;28;20076;-58
2021/08/25 03:09:28;;;;;;;1.52;1.42;;;21.90;71.30;;;;;;4176828;28;20060;-59
2021/08/25 03:11:52;;;;;;;1.38;1.35;;;21.90;71.10;;;;;;4181909;28;20032;-59
2021/08/25 03:14:13;;;;;;;1.70;1.60;;;21.80;71.00;;;;;;4193355;28;20114;-60
2021/08/25 03:16:35;;;;;;;1.20;1.20;;;21.90;71.20;;;;;;4193480;28;20058;-59
2021/08/25 03:18:57;;;;;;;1.58;1.48;;;21.90;71.20;;;;;;4192703;28;20056;-59
2021/08/25 03:21:20;;;;;;;1.00;1.00;;;21.80;71.30;;;;;;4193134;28;20048;-59
2021/08/25 03:23:42;;;;;;;1.00;1.00;;;21.80;71.30;;;;;;4193194;28;20494;-59
2021/08/25 03:26:04;;;;;;;0.80;0.80;;;21.80;71.30;;;;;;4193286;28;20345;-59
2021/08/25 03:28:27;;;;;;;1.13;1.13;;;21.80;71.30;;;;;;4193020;28;20101;-59
2021/08/25 03:30:49;;;;;;;1.20;1.20;;;21.80;71.20;;;;;;4193373;28;20044;-60
2021/08/25 03:33:12;;;;;;;0.90;0.90;;;21.80;71.30;;;;;;4176723;28;20118;-60
2021/08/25 03:35:35;;;;;;;1.15;1.15;;;21.80;71.30;;;;;;4176409;28;20044;-59
2021/08/25 03:38:03;;;;;;;1.10;1.10;;;21.80;71.30;;;;;;4176035;28;20501;-59
2021/08/25 03:40:25;;;;;;;0.80;0.80;;;21.80;71.50;;;;;;4185921;28;20052;-59
2021/08/25 03:42:48;;;;;;;1.33;1.02;;;21.80;71.40;;;;;;4192872;28;20135;-59
2021/08/25 03:45:12;;;;;;;1.60;1.60;;;21.80;71.30;;;;;;4192673;28;20083;-59
2021/08/25 03:47:34;;;;;;;1.85;1.75;;;21.80;71.30;;;;;;4192851;28;20052;-59
2021/08/25 03:49:56;;;;;;;4.18;1.98;;;21.70;71.40;;;;;;4176237;28;20495;-59
2021/08/25 03:52:18;;;;;;;1.85;1.40;;;21.80;72.40;;;;;;4201918;28;20134;-60
2021/08/25 03:54:40;;;;;;;2.28;2.17;;;21.70;71.40;;;;;;4209367;28;20419;-59
2021/08/25 03:57:03;;;;;;;3.50;3.30;;;21.70;71.40;;;;;;4209569;28;20490;-59
2021/08/25 03:59:25;;;;;;;3.80;3.60;;;21.70;71.50;;;;;;4209321;28;20135;-59
2021/08/25 04:01:49;;;;;;;3.97;3.70;;;21.70;71.50;;;;;;4209214;28;20154;-60
2021/08/25 04:04:12;;;;;;;4.32;4.03;;;21.70;71.30;;;;;;4196077;28;20131;-59
2021/08/25 04:06:33;;;;;;;5.20;4.80;;;21.70;71.50;;;;;;4191781;28;20047;-59
2021/08/25 04:08:55;;;;;;;5.90;5.43;;;21.70;71.50;;;;;;4192555;28;20509;-59
2021/08/25 04:11:21;;;;;;;6.47;5.97;;;21.70;71.50;;;;;;4192464;28;20457;-59
2021/08/25 04:13:43;;;;;;;6.25;5.68;;;21.70;71.20;;;;;;4192142;28;20056;-59
2021/08/25 04:16:06;;;;;;;6.32;5.82;;;21.70;71.50;;;;;;4191915;28;20049;-59
2021/08/25 04:18:30;;;;;;;5.95;5.45;;;21.70;71.40;;;;;;4185601;28;20827;-59
2021/08/25 04:20:51;;;;;;;5.78;5.38;;;21.70;72.20;;;;;;4176736;28;20052;-59
2021/08/25 04:23:13;;;;;;;5.15;4.75;;;21.70;71.40;;;;;;4175887;28;20138;-58
2021/08/25 04:25:36;;;;;;;4.05;3.85;;;21.70;71.30;;;;;;4175743;28;20136;-58
2021/08/25 04:27:58;;;;;;;3.92;3.72;;;21.70;71.30;;;;;;4175502;28;20118;-59
2021/08/25 04:30:20;;;;;;;3.60;3.40;;;21.70;71.40;;;;;;4175642;28;20049;-58
2021/08/25 04:32:42;;;;;;;3.67;3.47;;;21.60;71.20;;;;;;4175689;28;20461;-59
2021/08/25 04:35:06;;;;;;;3.42;3.22;;;21.60;71.40;;;;;;4187830;28;20060;-59
2021/08/25 04:37:28;;;;;;;3.47;3.28;;;21.60;71.20;;;;;;4174988;28;20052;-59
2021/08/25 04:39:51;;;;;;;2.90;2.80;;;21.60;71.20;;;;;;4187666;28;20044;-59
2021/08/25 04:42:12;;;;;;;3.10;3.00;;;21.60;71.30;;;;;;4208713;28;20044;-59
2021/08/25 04:44:35;;;;;;;2.80;2.70;;;21.60;71.20;;;;;;4208740;28;20048;-57
2021/08/25 04:46:57;;;;;;;2.90;2.75;;;21.60;71.30;;;;;;4208514;28;20559;-59
2021/08/25 04:49:19;;;;;;;3.03;2.92;;;21.60;71.50;;;;;;4193373;28;20491;-59
2021/08/25 04:51:42;;;;;;;2.85;2.75;;;21.60;71.50;;;;;;4192213;28;20062;-59
2021/08/25 04:54:05;;;;;;;2.50;2.33;;;21.60;71.30;;;;;;4200371;28;20066;-59
2021/08/25 04:56:27;;;;;;;2.67;2.47;;;21.60;71.50;;;;;;4191638;28;20040;-59
2021/08/25 04:58:49;;;;;;;2.47;2.38;;;21.60;71.60;;;;;;4191952;28;20152;-59
2021/08/25 05:01:12;;;;;;;2.20;2.10;;;21.60;71.50;;;;;;4191486;28;20068;-59
2021/08/25 05:03:35;;;;;;;2.33;2.03;;;21.60;72.40;;;;;;4191017;28;20126;-59
2021/08/25 05:05:57;;;;;;;2.20;2.10;;;21.50;71.30;;;;;;4191383;28;20109;-59
2021/08/25 05:08:21;;;;;;;2.00;1.90;;;21.50;71.50;;;;;;4191567;28;20044;-60
2021/08/25 05:10:47;;;;;;;2.00;1.90;;;21.50;71.50;;;;;;4191338;28;20509;-60
2021/08/25 05:13:09;;;;;;;2.60;2.40;;;21.50;71.40;;;;;;4190831;28;20143;-59
2021/08/25 05:15:31;;;;;;;2.00;1.90;;;21.50;71.70;;;;;;4191455;28;20048;-60
2021/08/25 05:17:53;;;;;;;2.00;1.90;;;21.50;71.80;;;;;;4188255;28;20059;-61
2021/08/25 05:20:15;;;;;;;1.63;1.58;;;21.50;71.80;;;;;;4176579;28;20049;-60
2021/08/25 05:22:37;;;;;;;2.00;1.90;;;21.50;71.80;;;;;;4208087;28;20067;-60
2021/08/25 05:25:00;;;;;;;1.95;1.85;;;21.50;71.80;;;;;;4207974;28;20055;-60
2021/08/25 05:27:22;;;;;;;2.05;1.70;;;21.50;71.50;;;;;;4207218;28;20040;-62
2021/08/25 05:29:45;;;;;;;1.65;1.60;;;21.50;72.10;;;;;;4207996;28;20505;-60
2021/08/25 05:32:07;;;;;;;1.90;1.80;;;21.60;72.40;;;;;;4208163;28;20051;-61
2021/08/25 05:34:29;;;;;;;2.53;2.33;;;21.60;72.40;;;;;;4190305;28;20118;-61
2021/08/25 05:36:52;;;;;;;2.70;2.60;;;21.60;72.20;;;;;;4189697;28;20048;-60
2021/08/25 05:39:13;;;;;;;3.70;3.50;;;21.60;72.20;;;;;;4189027;28;20552;-61
2021/08/25 05:41:37;;;;;;;4.85;4.50;;;21.60;72.20;;;;;;4187541;28;20567;-60
2021/08/25 05:44:03;;;;;;;3.97;3.67;;;21.60;72.20;;;;;;4185367;28;20044;-60
2021/08/25 05:46:25;;;;;;;4.78;3.60;;;21.60;72.40;;;;;;4183463;28;20501;-60
2021/08/25 05:48:47;;;;;;;3.38;3.17;;;21.60;72.60;;;;;;4201968;28;20044;-61
2021/08/25 05:51:10;;;;;;;4.18;2.90;;;21.60;72.60;;;;;;4202308;28;20055;-61
2021/08/25 05:53:32;;;;;;;3.50;3.20;;;21.60;72.60;;;;;;4188626;28;20052;-61
2021/08/25 05:55:54;;;;;;;3.47;2.67;;;21.50;72.60;;;;;;4194487;28;20040;-61
2021/08/25 05:58:18;;;;;;;2.63;2.53;;;21.50;73.60;;;;;;4191120;28;20059;-61
2021/08/25 06:00:40;;;;;;;2.60;2.45;;;21.50;72.70;;;;;;4198379;28;20062;-61
2021/08/25 06:03:02;;;;;;;2.65;2.45;;;21.50;72.70;;;;;;4190258;28;20500;-61
2021/08/25 06:05:25;;;;;;;2.63;2.42;;;21.50;72.90;;;;;;4191749;28;20048;-60
2021/08/25 06:07:47;;;;;;;2.75;2.10;;;21.50;73.00;;;;;;4182022;28;20044;-60
2021/08/25 06:10:11;;;;;;;2.40;2.20;;;21.50;73.40;;;;;;4190978;28;20043;-61
2021/08/25 06:12:33;;;;;;;2.60;2.40;;;21.50;73.40;;;;;;4190787;28;20041;-60
2021/08/25 06:14:56;;;;;;;3.00;2.80;;;21.50;73.60;;;;;;4190964;28;20106;-60
2021/08/25 06:17:18;;;;;;;3.00;2.80;;;21.50;73.60;;;;;;4187250;28;20484;-60
2021/08/25 06:19:40;;;;;;;3.80;3.55;;;21.50;73.60;;;;;;4190601;28;20509;-59
2021/08/25 06:22:02;;;;;;;3.30;3.00;;;21.50;73.70;;;;;;4190876;28;20056;-61
2021/08/25 06:24:24;;;;;;;3.33;3.13;;;21.50;74.80;;;;;;4190658;28;20048;-60
2021/08/25 06:26:47;;;;;;;3.45;3.10;;;21.50;74.10;;;;;;4190693;28;20044;-60
2021/08/25 06:29:09;;;;;;;2.97;2.78;;;21.50;74.30;;;;;;4190579;28;20056;-61
2021/08/25 06:31:33;;;;;;;2.70;2.50;;;21.60;74.50;;;;;;4190739;28;20049;-61
2021/08/25 06:33:55;;;;;;;2.60;2.40;;;21.60;74.50;;;;;;4181362;28;20040;-61
2021/08/25 06:36:17;;;;;;;5.25;2.58;;;21.60;74.40;;;;;;4190455;28;20056;-60
2021/08/25 06:38:39;;;;;;;2.78;2.17;;;21.60;74.40;;;;;;4181009;28;20073;-60
2021/08/25 06:41:02;;;;;;;2.30;2.10;;;21.70;74.40;;;;;;4177298;28;20057;-60
2021/08/25 06:43:24;;;;;;;2.20;2.10;;;21.70;74.30;;;;;;4178353;28;20130;-60
2021/08/25 06:45:46;;;;;;;3.53;2.50;;;21.80;74.30;;;;;;4176896;28;20045;-60
2021/08/25 06:48:10;;;;;;;2.67;2.47;;;21.80;74.30;;;;;;4176936;28;20045;-60
2021/08/25 06:50:33;;;;;;;2.42;2.33;;;21.80;74.20;;;;;;4192116;28;20502;-60
2021/08/25 06:52:55;;;;;;;3.10;2.65;;;21.80;74.20;;;;;;4193702;28;20162;-59
2021/08/25 06:55:17;;;;;;;3.05;2.80;;;21.80;74.20;;;;;;4193617;28;20049;-59
2021/08/25 06:57:39;;;;;;;2.67;2.40;;;21.90;74.20;;;;;;4193794;28;20491;-59
2021/08/25 07:00:01;;;;;;;2.75;2.55;;;21.90;74.20;;;;;;4193334;28;20094;-60
2021/08/25 07:02:24;;;;;;;2.65;2.55;;;21.90;74.00;;;;;;4193885;28;20048;-60
2021/08/25 07:04:47;;;;;;;4.15;2.63;;;22.00;74.00;;;;;;4198464;27;20054;-60
2021/08/25 07:07:09;;;;;;;3.40;2.95;;;22.00;73.80;;;;;;4209994;27;20047;-59
2021/08/25 07:09:31;;;;;;;5.63;3.25;;;22.10;73.80;;;;;;4210302;27;20410;-60
2021/08/25 07:11:53;;;;;;;3.63;3.22;;;22.10;73.70;;;;;;4210062;27;20048;-60
2021/08/25 07:14:15;;;;;;;4.40;2.40;;;22.10;73.40;;;;;;4210047;27;20506;-60
2021/08/25 07:16:37;;;;;;;3.05;2.47;;;22.20;73.40;;;;;;4210110;27;20512;-60
2021/08/25 07:18:59;;;;;;;3.00;2.25;;;22.30;73.20;;;;;;4206870;27;20074;-59
2021/08/25 07:21:22;;;;;;;4.90;2.85;;;22.30;73.00;;;;;;4193454;28;20044;-60
2021/08/25 07:23:50;;;;;;;3.42;1.83;;;22.30;73.20;;;;;;4193185;28;20414;-60
2021/08/25 07:26:12;;;;;;;2.15;1.98;;;22.40;73.20;;;;;;4193025;28;20054;-60
2021/08/25 07:28:34;;;;;;;2.45;1.60;;;22.40;72.70;;;;;;4193018;28;20036;-60
2021/08/25 07:30:56;;;;;;;3.13;2.40;;;22.50;72.40;;;;;;4193471;28;20060;-59
2021/08/25 07:33:20;;;;;;;6.82;3.53;;;22.50;72.70;;;;;;4192703;28;20521;-60
2021/08/25 07:35:46;;;;;;;2.83;2.33;;;22.50;73.10;;;;;;4193399;28;20048;-60
2021/08/25 07:38:10;;;;;;;4.43;2.97;;;22.50;72.90;;;;;;4193119;28;20102;-60
2021/08/25 07:40:32;;;;;;;3.88;2.22;;;22.50;73.70;;;;;;4192796;28;20411;-60
2021/08/25 07:42:57;;;;;;;2.53;2.33;;;22.60;72.50;;;;;;4193005;28;20113;-60
2021/08/25 07:45:20;;;;;;;3.05;2.25;;;22.60;72.10;;;;;;4192780;28;20555;-59
2021/08/25 07:47:44;;;;;;;2.28;1.63;;;22.60;72.00;;;;;;4192602;28;20131;-60
2021/08/25 07:50:06;;;;;;;2.17;1.88;;;22.70;72.10;;;;;;4207780;27;20546;-60
2021/08/25 07:52:29;;;;;;;4.15;2.33;;;22.70;71.60;;;;;;4209589;27;20047;-59
2021/08/25 07:54:52;;;;;;;2.78;2.25;;;22.70;71.10;;;;;;4209374;27;20160;-60
2021/08/25 07:57:14;;;;;;;2.33;1.70;;;22.70;71.20;;;;;;4206326;27;20474;-59
2021/08/25 07:59:36;;;;;;;1.90;1.80;;;22.70;71.00;;;;;;4176363;28;20052;-60
2021/08/25 08:01:58;;;;;;;2.97;2.00;;;22.70;70.20;;;;;;4174549;28;20471;-60
2021/08/25 08:04:20;;;;;;;3.90;2.50;;;22.70;70.90;;;;;;4176041;28;20822;-60
2021/08/25 08:06:42;;;;;;;1.70;1.60;;;22.70;71.10;;;;;;4176219;28;20053;-60
2021/08/25 08:09:04;;;;;;;4.00;2.10;;;22.70;70.30;;;;;;4176138;28;20133;-60
2021/08/25 08:11:28;;;;;;;2.50;2.05;;;22.70;71.10;;;;;;4175935;28;20063;-60
2021/08/25 08:13:49;;;;;;;2.05;1.73;;;22.70;70.90;;;;;;4180720;28;20044;-60
2021/08/25 08:16:16;;;;;;;1.85;1.75;;;22.60;70.90;;;;;;4191952;28;20491;-60
2021/08/25 08:18:41;;;;;;;2.45;2.25;;;22.60;71.00;;;;;;4192396;28;20513;-59
2021/08/25 08:21:04;;;;;;;3.00;2.10;;;22.60;70.60;;;;;;4207913;28;20047;-59
2021/08/25 08:23:27;;;;;;;1.80;1.70;;;22.60;71.30;;;;;;4208698;28;20076;-59
2021/08/25 08:25:51;;;;;;;1.67;1.48;;;22.60;70.90;;;;;;4209318;28;20051;-59
2021/08/25 08:28:14;;;;;;;1.33;1.02;;;22.70;70.80;;;;;;4209185;28;20124;-59
2021/08/25 08:30:36;;;;;;;0.55;0.40;;;22.70;71.10;;;;;;4208976;28;20048;-59
2021/08/25 08:32:59;;;;;;;0.38;0.38;;;22.70;70.80;;;;;;4208853;28;20466;-59
2021/08/25 08:35:22;;;;;;;0.88;0.60;;;22.70;69.90;;;;;;4208965;28;20132;-60
2021/08/25 08:37:44;;;;;;;0.35;0.35;;;22.70;69.90;;;;;;4208751;28;20051;-59
2021/08/25 08:40:07;;;;;;;0.50;0.50;;;22.60;69.00;;;;;;4208726;28;20163;-59
2021/08/25 08:42:32;;;;;;;0.52;0.28;;;22.60;69.30;;;;;;4206424;28;20822;-59
2021/08/25 08:44:57;;;;;;;0.40;0.40;;;22.70;69.60;;;;;;4192113;28;20059;-59
2021/08/25 08:47:20;;;;;;;0.77;0.57;;;22.70;70.10;;;;;;4192079;28;20045;-60
2021/08/25 08:49:42;;;;;;;0.98;0.40;;;22.70;70.60;;;;;;4191619;28;20125;-60
2021/08/25 08:52:05;;;;;;;0.80;0.30;;;22.70;69.00;;;;;;4191792;28;20052;-60
2021/08/25 08:54:27;;;;;;;0.32;0.28;;;22.70;67.70;;;;;;4191914;28;20056;-59
2021/08/25 08:56:50;;;;;;;0.75;0.30;;;22.70;66.80;;;;;;4191701;28;20044;-59
2021/08/25 08:59:13;;;;;;;0.75;0.30;;;22.80;67.80;;;;;;4191825;28;20048;-59
2021/08/25 09:01:36;;;;;;;0.20;0.20;;;22.80;68.20;;;;;;4191680;28;20521;-60
2021/08/25 09:03:58;;;;;;;1.33;0.47;;;22.80;69.20;;;;;;4191460;28;20052;-59
2021/08/25 09:06:20;;;;;;;0.30;0.30;;;22.80;69.20;;;;;;4192089;28;20044;-59
2021/08/25 09:08:42;;;;;;;0.30;0.30;;;22.70;68.60;;;;;;4191759;28;20056;-59
2021/08/25 09:11:08;;;;;;;0.43;0.43;;;22.70;69.10;;;;;;4191607;28;20554;-59
2021/08/25 09:13:36;;;;;;;0.50;0.30;;;22.70;68.60;;;;;;4192356;28;20079;-59
2021/08/25 09:15:58;;;;;;;1.40;0.40;;;22.70;69.70;;;;;;4197330;28;20058;-60
2021/08/25 09:18:21;;;;;;;0.10;0.10;;;22.70;69.60;;;;;;4208002;28;20064;-59
2021/08/25 09:20:48;;;;;;;0.25;0.25;;;22.70;68.80;;;;;;4208333;28;20417;-59
2021/08/25 09:23:13;;;;;;;0.20;0.20;;;22.70;68.70;;;;;;4208381;28;20050;-59
2021/08/25 09:25:36;;;;;;;0.70;0.35;;;22.70;67.20;;;;;;4207716;28;20510;-60
2021/08/25 09:27:58;;;;;;;0.75;0.20;;;22.70;67.20;;;;;;4207499;28;20062;-59
2021/08/25 09:30:21;;;;;;;0.20;0.20;;;22.70;68.20;;;;;;4208297;28;20122;-59
2021/08/25 09:32:43;;;;;;;0.65;0.30;;;22.70;68.70;;;;;;4208165;28;20071;-60
2021/08/25 09:35:08;;;;;;;0.10;0.10;;;22.70;69.70;;;;;;4207989;28;20542;-60
2021/08/25 09:37:33;;;;;;;0.20;0.20;;;22.70;68.80;;;;;;4207722;28;20059;-60
2021/08/25 09:39:57;;;;;;;0.10;0.10;;;22.80;69.30;;;;;;4207909;28;20138;-60
2021/08/25 09:42:43;;;;;;;0.20;0.20;;;22.80;69.40;;;;;;4203886;28;20075;-60
2021/08/25 09:45:07;;;;;;;0.40;0.22;;;22.80;69.20;;;;;;4183542;28;20052;-61
2021/08/25 09:47:48;;;;;;;0.10;0.10;;;22.80;69.10;;;;;;4191077;28;20063;-61
2021/08/25 09:50:15;;;;;;;0.20;0.20;;;22.80;68.20;;;;;;4174475;28;20041;-61
2021/08/25 09:52:37;;;;;;;0.20;0.20;;;22.80;69.20;;;;;;4179178;28;20483;-61
2021/08/25 09:55:00;;;;;;;0.30;0.30;;;22.80;68.60;;;;;;4191086;28;20048;-61
2021/08/25 09:57:35;;;;;;;0.22;0.22;;;22.80;68.00;;;;;;4191217;28;20494;-60
2021/08/25 09:59:57;;;;;;;0.30;0.30;;;22.80;68.70;;;;;;4190585;28;20418;-61
2021/08/25 10:02:20;;;;;;;0.22;0.20;;;22.80;68.80;;;;;;4174943;28;20068;-60
2021/08/25 10:04:42;;;;;;;0.30;0.30;;;22.80;68.50;;;;;;4174492;28;20052;-60
2021/08/25 10:07:06;;;;;;;0.20;0.20;;;22.80;68.80;;;;;;4174325;28;20040;-60
2021/08/25 10:09:29;;;;;;;0.20;0.20;;;22.80;68.50;;;;;;4174542;28;20056;-60
2021/08/25 10:11:56;;;;;;;0.40;0.40;;;22.80;68.80;;;;;;4174019;28;20048;-60
2021/08/25 10:14:18;;;;;;;0.20;0.20;;;22.80;69.00;;;;;;4176908;28;20473;-61
2021/08/25 10:16:44;;;;;;;0.30;0.28;;;22.90;69.10;;;;;;4178126;28;20107;-60
2021/08/25 10:19:30;;;;;;;0.30;0.30;;;22.90;69.00;;;;;;4177708;28;20487;-60
2021/08/25 10:21:53;;;;;;;1.08;0.45;;;22.90;70.00;;;;;;4177266;28;20446;-61
2021/08/25 10:24:16;;;;;;;0.30;0.30;;;22.90;69.30;;;;;;4177722;28;20076;-61
2021/08/25 10:27:07;;;;;;;0.25;0.20;;;22.90;69.30;;;;;;4187248;28;20106;-60
2021/08/25 10:29:30;;;;;;;0.85;0.20;;;22.90;69.20;;;;;;4193880;28;20072;-61
2021/08/25 10:32:20;;;;;;;1.63;0.40;;;22.90;70.40;;;;;;4194279;28;20052;-60
2021/08/25 10:34:43;;;;;;;0.28;0.20;;;22.90;69.50;;;;;;4149623;28;20119;-61
2021/08/25 10:37:28;;;;;;;0.50;0.50;;;22.80;68.90;;;;;;4180344;28;20040;-61
2021/08/25 10:39:59;;;;;;;0.55;0.55;;;22.90;68.70;;;;;;4193834;28;20164;-60
2021/08/25 10:42:47;;;;;;;0.50;0.50;;;22.90;68.90;;;;;;4193472;28;20560;-61
2021/08/25 10:45:09;;;;;;;0.82;0.50;;;22.80;68.90;;;;;;4193746;28;20518;-60
2021/08/25 10:47:56;;;;;;;0.45;0.45;;;22.80;69.40;;;;;;4193763;28;20040;-60
2021/08/25 10:50:18;;;;;;;0.60;0.30;;;22.90;69.70;;;;;;4193687;28;20482;-59
2021/08/25 10:52:41;;;;;;;0.28;0.20;;;22.80;69.70;;;;;;4193586;28;20054;-59
2021/08/25 10:55:03;;;;;;;0.20;0.20;;;22.90;69.40;;;;;;4193441;28;20761;-60
2021/08/25 10:57:27;;;;;;;0.82;0.20;;;22.90;69.10;;;;;;4193762;28;20054;-60
2021/08/25 11:00:08;;;;;;;0.63;0.13;;;22.80;68.80;;;;;;4193963;28;20052;-59
2021/08/25 11:02:37;;;;;;;1.20;0.50;;;22.80;68.10;;;;;;4193149;28;20040;-60
2021/08/25 11:05:00;;;;;;;0.80;0.47;;;22.90;67.20;;;;;;4193094;28;20402;-60
2021/08/25 11:07:22;;;;;;;2.42;0.43;;;22.90;67.80;;;;;;4193506;28;20059;-60
2021/08/25 11:09:44;;;;;;;0.40;0.28;;;22.90;68.70;;;;;;4193666;28;20110;-60
2021/08/25 11:12:09;;;;;;;0.20;0.20;;;22.90;68.70;;;;;;4193385;28;20060;-62
2021/08/25 11:14:40;;;;;;;1.45;0.30;;;22.90;68.10;;;;;;4193835;28;20060;-62
2021/08/25 11:17:08;;;;;;;0.20;0.20;;;22.90;67.90;;;;;;4193478;28;20097;-63
2021/08/25 11:19:32;;;;;;;0.32;0.32;;;22.90;68.50;;;;;;4192862;28;20056;-62
2021/08/25 11:21:56;;;;;;;0.20;0.20;;;22.90;68.40;;;;;;4192931;28;20037;-61
2021/08/25 11:24:18;;;;;;;0.93;0.30;;;22.90;68.50;;;;;;4192360;28;20510;-61
2021/08/25 11:26:41;;;;;;;0.40;0.40;;;22.90;68.70;;;;;;4193261;28;20231;-61
2021/08/25 11:29:03;;;;;;;0.82;0.50;;;22.90;68.40;;;;;;4193155;28;20052;-61
2021/08/25 11:31:26;;;;;;;1.88;0.43;;;22.90;67.70;;;;;;4193339;28;20421;-60
2021/08/25 11:33:50;;;;;;;1.80;0.40;;;22.90;66.30;;;;;;4193191;28;20052;-61
2021/08/25 11:36:12;;;;;;;0.50;0.50;;;22.90;67.20;;;;;;4193063;28;22384;-61
2021/08/25 11:38:36;;;;;;;0.70;0.70;;;22.90;67.00;;;;;;4193069;28;20161;-61
2021/08/25 11:40:58;;;;;;;0.77;0.77;;;22.90;67.00;;;;;;4193136;28;20044;-60
2021/08/25 11:43:21;;;;;;;1.25;0.70;;;22.80;66.90;;;;;;4193056;28;20054;-61
2021/08/25 11:45:48;;;;;;;0.93;0.77;;;22.80;67.70;;;;;;4176225;28;20124;-63
2021/08/25 11:48:10;;;;;;;0.50;0.50;;;22.80;68.10;;;;;;4186250;28;20639;-62
2021/08/25 11:50:36;;;;;;;1.27;0.68;;;22.80;68.30;;;;;;4193026;28;20566;-62
2021/08/25 11:52:59;;;;;;;1.08;0.57;;;22.80;68.00;;;;;;4192726;28;20486;-62
2021/08/25 11:55:23;;;;;;;1.23;0.60;;;22.80;67.90;;;;;;4186844;28;20049;-62
2021/08/25 11:57:47;;;;;;;0.40;0.32;;;22.80;69.60;;;;;;4192634;28;20048;-62
2021/08/25 12:00:10;;;;;;;3.03;0.73;;;22.70;68.10;;;;;;4186904;28;20048;-63
2021/08/25 12:02:53;;;;;;;0.43;0.43;;;22.70;69.00;;;;;;4183560;28;20485;-62
2021/08/25 12:05:21;;;;;;;2.40;0.60;;;22.70;69.30;;;;;;4187596;27;20052;-62
2021/08/25 12:08:06;;;;;;;1.55;0.70;;;22.70;69.30;;;;;;4174328;28;20103;-61
2021/08/25 12:10:29;;;;;;;1.50;0.38;;;22.70;68.80;;;;;;4175820;28;20060;-61
2021/08/25 12:12:52;;;;;;;1.30;0.45;;;22.70;69.20;;;;;;4184506;28;20051;-62
2021/08/25 12:15:14;;;;;;;0.40;0.40;;;22.70;69.40;;;;;;4178288;28;20048;-61
2021/08/25 12:17:58;;;;;;;0.63;0.30;;;22.70;69.20;;;;;;4176096;28;20041;-61
2021/08/25 12:20:34;;;;;;;1.30;0.55;;;22.70;70.20;;;;;;4175675;28;20551;-61
2021/08/25 12:23:04;;;;;;;0.60;0.60;;;22.70;69.40;;;;;;4177370;28;20127;-60
2021/08/25 12:25:38;;;;;;;0.50;0.50;;;22.70;68.40;;;;;;4175991;28;20056;-60
2021/08/25 12:28:00;;;;;;;0.85;0.50;;;22.70;67.80;;;;;;4175129;28;20291;-61